Create Tblcommutelog Verified Points Advance Search
| # | Trip ID | Id Commuter | Trip Date | Trip Num | Current Lat | Current Lng | Delta Distance | Current Time | Activity | Activity Confidence | Current Speed | |
|---|---|---|---|---|---|---|---|---|---|---|---|---|
| 71441 | 251216_789579_16464305_0526 | 789579 | (not set) | (not set) | 39.007434811376 | -77.496224387439 | 8.2146 | 2025-12-16 05:45:22 | in_vehicle | 100 | 7.6711936842293 | |
| 71442 | 251216_784108_6441454_0547 | 784108 | (not set) | (not set) | 39.186710631235 | -77.256866974435 | 2.4402 | 2025-12-16 05:49:19 | in_vehicle | 100 | 13.733046036103 | |
| 71443 | 251216_784108_6441454_0547 | 784108 | (not set) | (not set) | 39.156956240378 | -77.226279253207 | 5.1131 | 2025-12-16 05:51:35 | in_vehicle | 100 | 13.366473843733 | |
| 71444 | 251216_784108_6441454_0547 | 784108 | (not set) | (not set) | 39.121487062244 | -77.198454879367 | 8.0103 | 2025-12-16 05:54:17 | in_vehicle | 100 | 13.902920954518 | |
| 71445 | 251216_682091_16516182_0547 | 682091 | (not set) | (not set) | 39.034570141672 | -76.984552004191 | 1.0806 | 2025-12-16 05:57:17 | in_vehicle | 100 | 3.3974983683067 | |
| 71446 | 251216_682091_16516182_0547 | 682091 | (not set) | (not set) | 39.042317144824 | -76.991544779048 | 1.8532 | 2025-12-16 05:59:24 | in_vehicle | 100 | 7.6220193657407 | |
| 71447 | 251216_789839_16472497_0550 | 789839 | (not set) | (not set) | 38.449119805077 | -77.426107499498 | 1.5348 | 2025-12-16 06:01:17 | in_vehicle | 100 | 10.335547667796 | |
| 71448 | 251216_787692_16426629_0549 | 787692 | (not set) | (not set) | 39.030817256134 | -77.128045824337 | 13.6742 | 2025-12-16 06:03:03 | in_vehicle | 100 | 12.606507103454 | |
| 71449 | 251216_787692_16426629_0549 | 787692 | (not set) | (not set) | 39.020246467606 | -77.105624800627 | 15.1862 | 2025-12-16 06:04:29 | in_vehicle | 100 | 10.429425912184 | |
| 71450 | 251216_682091_16516182_0547 | 682091 | (not set) | (not set) | 39.0051019875 | -77.023101600141 | 5.257 | 2025-12-16 06:07:24 | in_vehicle | 100 | 4.9934285228929 | |
| 71451 | 251216_787692_16426629_0549 | 787692 | (not set) | (not set) | 39.009891367026 | -77.040786436906 | 19.4679 | 2025-12-16 06:11:40 | in_vehicle | 100 | 0 | |
| 71452 | 251216_789839_16472497_0550 | 789839 | (not set) | (not set) | 38.470686709871 | -77.413671191626 | 4.0613 | 2025-12-16 06:14:42 | still | 33 | -0.44703925898772 | |
| 71453 | 251216_789839_16472497_0550 | 789839 | (not set) | (not set) | 38.469168128973 | -77.412816776515 | 4.329 | 2025-12-16 06:16:47 | in_vehicle | 100 | -0.44703925898772 | |
| 71454 | 251216_789579_16464305_0526 | 789579 | (not set) | (not set) | 38.952854253225 | -77.363511419018 | 17.2448 | 2025-12-16 06:18:32 | in_vehicle | 100 | -0.44703925898772 | |
| 71455 | 251216_789839_16472497_0550 | 789839 | (not set) | (not set) | 38.495667034388 | -77.383089472847 | 7.3227 | 2025-12-16 06:20:16 | in_vehicle | 100 | 15.923538405143 | |
| 71456 | 251216_786880_16464305_0622 | 786880 | (not set) | (not set) | 38.976472903503 | -77.434402348558 | 0 | 2025-12-16 06:22:36 | unknown | 100 | 4.4972149454165 | |
| 71457 | 251216_789839_16472497_0550 | 789839 | (not set) | (not set) | 38.570111974372 | -77.333251152616 | 13.2328 | 2025-12-16 06:24:48 | in_vehicle | 100 | 15.145690094504 | |
| 71458 | 251216_780157_16647838_0625 | 780157 | (not set) | (not set) | 38.792616769569 | -77.034347701983 | 0.6109 | 2025-12-16 06:25:51 | in_vehicle | 100 | 12.347224333241 | |
| 71459 | 251215_788673_16657360_1602 | 788673 | (not set) | (not set) | 38.90639 | -77.0218083 | 1.5405 | 2025-12-15 16:32:59 | walking | 100 | 1.055012651211 | |
| 71460 | 251215_784252_16659750_1818 | 784252 | (not set) | (not set) | 39.380764735947 | -77.271905645212 | 35.048 | 2025-12-15 18:51:16 | in_vehicle | 100 | 14.993696746448 |